sensor_id;sensor_type;location;lat;lon;timestamp;P1;durP1;ratioP1;P2;durP2;ratioP2
12135;SDS011;6131;56.420;15.548;2024-01-30T02:53:59;6.60;;;3.67;;
12135;SDS011;6131;56.420;15.548;2024-01-30T02:56:25;8.43;;;4.23;;
12135;SDS011;6131;56.420;15.548;2024-01-30T02:58:51;5.00;;;3.23;;
12135;SDS011;6131;56.420;15.548;2024-01-30T03:01:17;5.37;;;3.00;;
12135;SDS011;6131;56.420;15.548;2024-01-30T03:03:43;6.60;;;4.03;;
12135;SDS011;6131;56.420;15.548;2024-01-30T03:06:09;7.97;;;3.60;;
12135;SDS011;6131;56.420;15.548;2024-01-30T03:08:35;5.57;;;3.37;;
12135;SDS011;6131;56.420;15.548;2024-01-30T03:11:01;4.63;;;3.50;;
12135;SDS011;6131;56.420;15.548;2024-01-30T03:13:27;6.10;;;3.40;;
12135;SDS011;6131;56.420;15.548;2024-01-30T03:19:03;5.60;;;3.20;;
12135;SDS011;6131;56.420;15.548;2024-01-30T03:21:29;6.83;;;3.60;;
12135;SDS011;6131;56.420;15.548;2024-01-30T03:23:55;5.37;;;3.20;;
12135;SDS011;6131;56.420;15.548;2024-01-30T03:26:21;5.97;;;3.40;;
12135;SDS011;6131;56.420;15.548;2024-01-30T03:28:47;9.43;;;3.47;;
12135;SDS011;6131;56.420;15.548;2024-01-30T03:31:14;4.70;;;3.40;;
12135;SDS011;6131;56.420;15.548;2024-01-30T03:33:40;5.00;;;3.30;;
12135;SDS011;6131;56.420;15.548;2024-01-30T03:36:06;5.80;;;3.70;;
12135;SDS011;6131;56.420;15.548;2024-01-30T03:38:32;8.90;;;4.17;;
12135;SDS011;6131;56.420;15.548;2024-01-30T03:40:58;9.73;;;4.13;;
12135;SDS011;6131;56.420;15.548;2024-01-30T03:43:24;9.20;;;3.63;;
12135;SDS011;6131;56.420;15.548;2024-01-30T03:45:50;5.13;;;3.63;;
12135;SDS011;6131;56.420;15.548;2024-01-30T03:48:16;6.20;;;3.30;;
12135;SDS011;6131;56.420;15.548;2024-01-30T03:50:42;5.40;;;3.13;;
12135;SDS011;6131;56.420;15.548;2024-01-30T03:53:08;4.50;;;3.40;;
12135;SDS011;6131;56.420;15.548;2024-01-30T03:55:34;9.40;;;4.00;;
12135;SDS011;6131;56.420;15.548;2024-01-30T03:58:00;7.67;;;3.23;;
12135;SDS011;6131;56.420;15.548;2024-01-30T04:00:27;5.50;;;3.10;;
12135;SDS011;6131;56.420;15.548;2024-01-30T04:02:53;4.40;;;3.53;;
12135;SDS011;6131;56.420;15.548;2024-01-30T04:05:19;5.97;;;3.23;;
12135;SDS011;6131;56.420;15.548;2024-01-30T04:07:45;6.07;;;2.90;;
12135;SDS011;6131;56.420;15.548;2024-01-30T04:10:11;7.93;;;3.03;;
12135;SDS011;6131;56.420;15.548;2024-01-30T04:12:37;7.23;;;3.33;;
12135;SDS011;6131;56.420;15.548;2024-01-30T04:15:03;4.47;;;3.03;;
12135;SDS011;6131;56.420;15.548;2024-01-30T04:17:29;7.37;;;3.27;;
12135;SDS011;6131;56.420;15.548;2024-01-30T04:19:55;5.10;;;3.00;;
12135;SDS011;6131;56.420;15.548;2024-01-30T04:22:21;5.83;;;3.30;;
12135;SDS011;6131;56.420;15.548;2024-01-30T04:24:47;5.33;;;3.60;;
12135;SDS011;6131;56.420;15.548;2024-01-30T04:27:13;6.53;;;2.87;;
12135;SDS011;6131;56.420;15.548;2024-01-30T04:29:39;7.03;;;3.07;;
12135;SDS011;6131;56.420;15.548;2024-01-30T04:32:05;6.70;;;3.83;;
12135;SDS011;6131;56.420;15.548;2024-01-30T04:34:31;6.20;;;3.40;;
12135;SDS011;6131;56.420;15.548;2024-01-30T04:36:57;5.40;;;3.27;;
12135;SDS011;6131;56.420;15.548;2024-01-30T04:39:23;6.10;;;3.53;;
12135;SDS011;6131;56.420;15.548;2024-01-30T04:41:49;6.17;;;3.27;;
12135;SDS011;6131;56.420;15.548;2024-01-30T04:44:15;8.37;;;3.63;;
12135;SDS011;6131;56.420;15.548;2024-01-30T04:46:41;6.43;;;3.37;;
12135;SDS011;6131;56.420;15.548;2024-01-30T04:49:07;6.07;;;3.00;;
12135;SDS011;6131;56.420;15.548;2024-01-30T04:51:33;4.20;;;3.03;;
12135;SDS011;6131;56.420;15.548;2024-01-30T04:53:59;5.53;;;3.03;;
12135;SDS011;6131;56.420;15.548;2024-01-30T04:56:25;7.23;;;3.17;;
12135;SDS011;6131;56.420;15.548;2024-01-30T04:58:51;7.10;;;3.30;;
12135;SDS011;6131;56.420;15.548;2024-01-30T05:01:17;6.37;;;2.70;;
12135;SDS011;6131;56.420;15.548;2024-01-30T05:03:43;4.83;;;3.20;;
12135;SDS011;6131;56.420;15.548;2024-01-30T05:06:09;5.67;;;2.83;;
12135;SDS011;6131;56.420;15.548;2024-01-30T05:08:35;5.60;;;2.97;;
12135;SDS011;6131;56.420;15.548;2024-01-30T05:11:02;3.47;;;2.70;;
12135;SDS011;6131;56.420;15.548;2024-01-30T05:13:31;4.83;;;3.00;;
12135;SDS011;6131;56.420;15.548;2024-01-30T05:15:57;7.23;;;3.30;;
12135;SDS011;6131;56.420;15.548;2024-01-30T05:18:23;5.37;;;2.80;;
12135;SDS011;6131;56.420;15.548;2024-01-30T05:20:50;4.43;;;3.00;;
12135;SDS011;6131;56.420;15.548;2024-01-30T05:23:16;4.13;;;2.70;;
12135;SDS011;6131;56.420;15.548;2024-01-30T05:25:42;7.40;;;3.20;;
12135;SDS011;6131;56.420;15.548;2024-01-30T05:28:08;6.90;;;3.57;;
12135;SDS011;6131;56.420;15.548;2024-01-30T05:30:34;7.13;;;3.03;;
12135;SDS011;6131;56.420;15.548;2024-01-30T05:32:59;5.73;;;3.20;;
12135;SDS011;6131;56.420;15.548;2024-01-30T05:35:25;6.80;;;2.80;;
12135;SDS011;6131;56.420;15.548;2024-01-30T05:37:51;3.60;;;2.97;;
12135;SDS011;6131;56.420;15.548;2024-01-30T05:40:18;4.47;;;2.90;;
12135;SDS011;6131;56.420;15.548;2024-01-30T05:42:44;5.07;;;3.17;;
12135;SDS011;6131;56.420;15.548;2024-01-30T05:45:10;8.13;;;3.63;;
12135;SDS011;6131;56.420;15.548;2024-01-30T05:47:36;6.87;;;3.57;;
12135;SDS011;6131;56.420;15.548;2024-01-30T05:50:02;5.37;;;3.63;;
12135;SDS011;6131;56.420;15.548;2024-01-30T05:52:28;6.10;;;3.53;;
12135;SDS011;6131;56.420;15.548;2024-01-30T05:54:54;4.57;;;3.17;;
12135;SDS011;6131;56.420;15.548;2024-01-30T05:57:20;5.13;;;3.27;;
12135;SDS011;6131;56.420;15.548;2024-01-30T05:59:46;5.50;;;2.97;;
12135;SDS011;6131;56.420;15.548;2024-01-30T06:02:13;5.77;;;3.03;;
12135;SDS011;6131;56.420;15.548;2024-01-30T06:04:39;5.33;;;3.23;;
12135;SDS011;6131;56.420;15.548;2024-01-30T06:07:05;3.70;;;2.90;;
12135;SDS011;6131;56.420;15.548;2024-01-30T06:09:31;4.73;;;2.90;;
12135;SDS011;6131;56.420;15.548;2024-01-30T06:11:57;4.70;;;2.80;;
12135;SDS011;6131;56.420;15.548;2024-01-30T06:14:23;8.13;;;2.87;;
12135;SDS011;6131;56.420;15.548;2024-01-30T06:16:49;5.00;;;3.67;;
12135;SDS011;6131;56.420;15.548;2024-01-30T06:19:15;5.17;;;2.90;;
12135;SDS011;6131;56.420;15.548;2024-01-30T06:21:41;5.93;;;3.10;;
12135;SDS011;6131;56.420;15.548;2024-01-30T06:24:07;4.77;;;3.00;;
12135;SDS011;6131;56.420;15.548;2024-01-30T06:26:33;5.10;;;3.07;;
12135;SDS011;6131;56.420;15.548;2024-01-30T06:29:00;6.17;;;3.30;;
12135;SDS011;6131;56.420;15.548;2024-01-30T06:31:25;8.53;;;3.67;;
12135;SDS011;6131;56.420;15.548;2024-01-30T06:33:51;5.60;;;3.17;;
12135;SDS011;6131;56.420;15.548;2024-01-30T06:36:18;4.70;;;3.17;;
12135;SDS011;6131;56.420;15.548;2024-01-30T06:38:44;6.77;;;3.27;;
12135;SDS011;6131;56.420;15.548;2024-01-30T06:41:10;5.73;;;3.20;;
12135;SDS011;6131;56.420;15.548;2024-01-30T06:43:36;5.07;;;2.87;;
12135;SDS011;6131;56.420;15.548;2024-01-30T06:46:02;4.53;;;2.90;;
12135;SDS011;6131;56.420;15.548;2024-01-30T06:48:28;8.07;;;3.37;;
12135;SDS011;6131;56.420;15.548;2024-01-30T06:50:54;3.67;;;2.60;;
12135;SDS011;6131;56.420;15.548;2024-01-30T06:53:22;4.90;;;3.30;;
12135;SDS011;6131;56.420;15.548;2024-01-30T06:55:48;7.27;;;3.60;;
12135;SDS011;6131;56.420;15.548;2024-01-30T06:58:14;4.17;;;3.03;;
12135;SDS011;6131;56.420;15.548;2024-01-30T07:00:40;5.60;;;3.30;;
12135;SDS011;6131;56.420;15.548;2024-01-30T07:03:06;5.20;;;3.10;;
12135;SDS011;6131;56.420;15.548;2024-01-30T07:05:32;5.40;;;3.30;;
12135;SDS011;6131;56.420;15.548;2024-01-30T07:07:58;5.10;;;2.97;;
12135;SDS011;6131;56.420;15.548;2024-01-30T07:10:24;5.90;;;3.17;;
12135;SDS011;6131;56.420;15.548;2024-01-30T07:12:50;4.60;;;3.20;;
12135;SDS011;6131;56.420;15.548;2024-01-30T07:15:16;5.70;;;3.40;;
12135;SDS011;6131;56.420;15.548;2024-01-30T07:17:45;5.97;;;3.30;;
12135;SDS011;6131;56.420;15.548;2024-01-30T07:20:11;7.03;;;3.30;;
12135;SDS011;6131;56.420;15.548;2024-01-30T07:22:37;9.87;;;3.23;;
12135;SDS011;6131;56.420;15.548;2024-01-30T07:25:03;10.60;;;3.30;;
12135;SDS011;6131;56.420;15.548;2024-01-30T07:27:29;7.13;;;3.20;;
12135;SDS011;6131;56.420;15.548;2024-01-30T07:29:55;4.93;;;3.20;;
12135;SDS011;6131;56.420;15.548;2024-01-30T07:32:21;6.63;;;3.63;;
12135;SDS011;6131;56.420;15.548;2024-01-30T07:34:47;6.03;;;3.67;;
12135;SDS011;6131;56.420;15.548;2024-01-30T07:37:13;5.07;;;3.07;;
12135;SDS011;6131;56.420;15.548;2024-01-30T07:39:40;5.73;;;3.20;;
12135;SDS011;6131;56.420;15.548;2024-01-30T07:42:06;4.77;;;3.30;;
12135;SDS011;6131;56.420;15.548;2024-01-30T07:44:32;5.60;;;3.43;;
12135;SDS011;6131;56.420;15.548;2024-01-30T07:46:58;4.13;;;3.17;;
12135;SDS011;6131;56.420;15.548;2024-01-30T07:49:24;5.17;;;3.60;;
12135;SDS011;6131;56.420;15.548;2024-01-30T07:51:50;5.83;;;3.37;;
12135;SDS011;6131;56.420;15.548;2024-01-30T07:54:16;6.47;;;4.30;;
12135;SDS011;6131;56.420;15.548;2024-01-30T07:56:42;6.33;;;3.83;;
12135;SDS011;6131;56.420;15.548;2024-01-30T07:59:11;5.83;;;3.47;;
12135;SDS011;6131;56.420;15.548;2024-01-30T08:01:37;5.23;;;3.87;;
12135;SDS011;6131;56.420;15.548;2024-01-30T08:04:03;6.97;;;4.50;;
12135;SDS011;6131;56.420;15.548;2024-01-30T08:06:29;9.30;;;4.03;;
12135;SDS011;6131;56.420;15.548;2024-01-30T08:08:55;8.57;;;3.80;;
12135;SDS011;6131;56.420;15.548;2024-01-30T08:11:23;6.93;;;4.20;;
12135;SDS011;6131;56.420;15.548;2024-01-30T08:13:51;11.03;;;4.33;;
12135;SDS011;6131;56.420;15.548;2024-01-30T08:16:17;5.47;;;4.13;;
12135;SDS011;6131;56.420;15.548;2024-01-30T08:18:43;8.00;;;4.53;;
12135;SDS011;6131;56.420;15.548;2024-01-30T08:21:09;8.63;;;4.33;;
12135;SDS011;6131;56.420;15.548;2024-01-30T08:23:35;6.93;;;4.30;;
12135;SDS011;6131;56.420;15.548;2024-01-30T08:26:01;6.50;;;3.70;;
12135;SDS011;6131;56.420;15.548;2024-01-30T08:28:28;6.80;;;3.60;;
12135;SDS011;6131;56.420;15.548;2024-01-30T08:30:54;6.63;;;3.80;;
12135;SDS011;6131;56.420;15.548;2024-01-30T08:33:20;6.83;;;4.00;;
12135;SDS011;6131;56.420;15.548;2024-01-30T08:35:46;11.50;;;4.50;;
12135;SDS011;6131;56.420;15.548;2024-01-30T08:38:12;6.67;;;4.10;;
12135;SDS011;6131;56.420;15.548;2024-01-30T08:40:38;8.20;;;4.53;;
12135;SDS011;6131;56.420;15.548;2024-01-30T08:43:04;8.87;;;4.67;;
12135;SDS011;6131;56.420;15.548;2024-01-30T08:45:30;8.27;;;4.60;;
12135;SDS011;6131;56.420;15.548;2024-01-30T08:47:56;8.90;;;4.60;;
12135;SDS011;6131;56.420;15.548;2024-01-30T08:50:22;7.13;;;4.70;;
12135;SDS011;6131;56.420;15.548;2024-01-30T08:52:48;6.57;;;4.37;;
12135;SDS011;6131;56.420;15.548;2024-01-30T08:55:14;7.37;;;4.20;;
12135;SDS011;6131;56.420;15.548;2024-01-30T08:57:40;6.83;;;4.20;;
12135;SDS011;6131;56.420;15.548;2024-01-30T09:00:06;6.67;;;4.20;;
12135;SDS011;6131;56.420;15.548;2024-01-30T09:02:34;6.17;;;4.03;;
12135;SDS011;6131;56.420;15.548;2024-01-30T09:05:00;6.83;;;3.97;;
12135;SDS011;6131;56.420;15.548;2024-01-30T09:07:26;6.77;;;4.30;;
12135;SDS011;6131;56.420;15.548;2024-01-30T09:09:52;7.93;;;4.47;;
12135;SDS011;6131;56.420;15.548;2024-01-30T09:12:18;6.27;;;4.23;;
12135;SDS011;6131;56.420;15.548;2024-01-30T09:14:44;8.53;;;4.37;;
12135;SDS011;6131;56.420;15.548;2024-01-30T09:17:10;8.83;;;4.47;;
12135;SDS011;6131;56.420;15.548;2024-01-30T09:19:36;9.67;;;4.87;;
12135;SDS011;6131;56.420;15.548;2024-01-30T09:22:02;6.00;;;4.07;;
12135;SDS011;6131;56.420;15.548;2024-01-30T09:24:28;7.40;;;3.80;;
12135;SDS011;6131;56.420;15.548;2024-01-30T09:26:54;6.07;;;3.73;;
12135;SDS011;6131;56.420;15.548;2024-01-30T09:29:20;9.07;;;4.30;;
12135;SDS011;6131;56.420;15.548;2024-01-30T09:31:47;8.77;;;4.10;;
12135;SDS011;6131;56.420;15.548;2024-01-30T09:34:13;8.37;;;4.10;;
12135;SDS011;6131;56.420;15.548;2024-01-30T09:36:39;6.73;;;4.07;;
12135;SDS011;6131;56.420;15.548;2024-01-30T09:39:05;6.70;;;3.83;;
12135;SDS011;6131;56.420;15.548;2024-01-30T09:41:32;10.47;;;5.20;;
12135;SDS011;6131;56.420;15.548;2024-01-30T09:43:59;11.73;;;5.37;;
12135;SDS011;6131;56.420;15.548;2024-01-30T09:46:26;19.30;;;6.33;;
12135;SDS011;6131;56.420;15.548;2024-01-30T09:48:52;37.00;;;10.53;;
12135;SDS011;6131;56.420;15.548;2024-01-30T09:51:19;27.70;;;9.57;;
12135;SDS011;6131;56.420;15.548;2024-01-30T09:53:46;37.37;;;10.53;;
12135;SDS011;6131;56.420;15.548;2024-01-30T09:56:12;33.83;;;10.27;;
12135;SDS011;6131;56.420;15.548;2024-01-30T09:58:39;40.13;;;11.43;;
12135;SDS011;6131;56.420;15.548;2024-01-30T10:01:05;37.67;;;11.70;;
12135;SDS011;6131;56.420;15.548;2024-01-30T10:03:31;42.13;;;11.93;;
12135;SDS011;6131;56.420;15.548;2024-01-30T10:05:57;44.40;;;12.70;;
12135;SDS011;6131;56.420;15.548;2024-01-30T10:08:23;41.93;;;12.07;;
12135;SDS011;6131;56.420;15.548;2024-01-30T10:10:49;37.53;;;11.73;;
12135;SDS011;6131;56.420;15.548;2024-01-30T10:13:15;39.87;;;11.67;;
12135;SDS011;6131;56.420;15.548;2024-01-30T10:15:41;47.97;;;11.30;;
12135;SDS011;6131;56.420;15.548;2024-01-30T10:18:08;44.60;;;11.97;;
12135;SDS011;6131;56.420;15.548;2024-01-30T10:20:35;38.67;;;11.03;;
12135;SDS011;6131;56.420;15.548;2024-01-30T10:23:01;40.73;;;10.63;;
12135;SDS011;6131;56.420;15.548;2024-01-30T10:25:27;39.73;;;10.53;;
12135;SDS011;6131;56.420;15.548;2024-01-30T10:27:53;34.17;;;11.50;;
12135;SDS011;6131;56.420;15.548;2024-01-30T10:30:23;36.40;;;10.80;;
12135;SDS011;6131;56.420;15.548;2024-01-30T10:32:49;33.47;;;10.83;;
12135;SDS011;6131;56.420;15.548;2024-01-30T10:35:15;34.23;;;11.80;;
12135;SDS011;6131;56.420;15.548;2024-01-30T10:37:44;31.70;;;10.97;;
12135;SDS011;6131;56.420;15.548;2024-01-30T10:40:13;40.00;;;10.67;;
12135;SDS011;6131;56.420;15.548;2024-01-30T10:42:41;33.70;;;10.83;;
12135;SDS011;6131;56.420;15.548;2024-01-30T10:45:08;28.97;;;11.10;;
12135;SDS011;6131;56.420;15.548;2024-01-30T10:47:43;28.63;;;10.90;;
12135;SDS011;6131;56.420;15.548;2024-01-30T10:50:10;29.60;;;10.43;;
12135;SDS011;6131;56.420;15.548;2024-01-30T10:52:36;30.43;;;11.27;;
12135;SDS011;6131;56.420;15.548;2024-01-30T10:55:03;27.53;;;10.90;;
12135;SDS011;6131;56.420;15.548;2024-01-30T10:57:33;27.23;;;10.80;;
12135;SDS011;6131;56.420;15.548;2024-01-30T11:00:00;35.47;;;11.57;;
12135;SDS011;6131;56.420;15.548;2024-01-30T11:02:30;31.83;;;11.10;;
12135;SDS011;6131;56.420;15.548;2024-01-30T11:04:57;24.80;;;11.30;;
12135;SDS011;6131;56.420;15.548;2024-01-30T11:07:24;26.33;;;10.90;;
12135;SDS011;6131;56.420;15.548;2024-01-30T11:09:51;25.10;;;10.20;;
12135;SDS011;6131;56.420;15.548;2024-01-30T11:12:27;27.07;;;10.60;;
12135;SDS011;6131;56.420;15.548;2024-01-30T11:22:49;31.03;;;11.00;;
12135;SDS011;6131;56.420;15.548;2024-01-30T11:25:16;32.50;;;11.20;;
12135;SDS011;6131;56.420;15.548;2024-01-30T11:27:43;30.00;;;11.63;;
12135;SDS011;6131;56.420;15.548;2024-01-30T11:30:09;29.17;;;11.87;;
12135;SDS011;6131;56.420;15.548;2024-01-30T11:32:35;30.03;;;12.13;;
12135;SDS011;6131;56.420;15.548;2024-01-30T11:35:05;28.30;;;11.73;;
12135;SDS011;6131;56.420;15.548;2024-01-30T11:37:36;23.77;;;11.83;;
12135;SDS011;6131;56.420;15.548;2024-01-30T11:40:04;27.03;;;11.40;;
12135;SDS011;6131;56.420;15.548;2024-01-30T11:42:30;32.63;;;13.13;;
12135;SDS011;6131;56.420;15.548;2024-01-30T11:44:59;27.37;;;11.53;;
12135;SDS011;6131;56.420;15.548;2024-01-30T11:47:27;32.33;;;11.27;;
12135;SDS011;6131;56.420;15.548;2024-01-30T11:49:53;29.17;;;12.07;;
12135;SDS011;6131;56.420;15.548;2024-01-30T11:52:19;22.97;;;12.00;;
12135;SDS011;6131;56.420;15.548;2024-01-30T11:54:45;25.90;;;11.13;;
12135;SDS011;6131;56.420;15.548;2024-01-30T11:57:11;25.43;;;11.33;;
12135;SDS011;6131;56.420;15.548;2024-01-30T11:59:37;23.23;;;11.63;;
12135;SDS011;6131;56.420;15.548;2024-01-30T12:02:03;26.23;;;11.63;;
12135;SDS011;6131;56.420;15.548;2024-01-30T12:04:29;23.93;;;11.03;;
12135;SDS011;6131;56.420;15.548;2024-01-30T12:06:56;23.93;;;10.70;;
12135;SDS011;6131;56.420;15.548;2024-01-30T12:09:22;24.50;;;10.93;;
12135;SDS011;6131;56.420;15.548;2024-01-30T12:11:48;24.93;;;10.70;;
12135;SDS011;6131;56.420;15.548;2024-01-30T12:14:17;19.83;;;9.37;;
12135;SDS011;6131;56.420;15.548;2024-01-30T12:16:47;22.67;;;9.87;;
12135;SDS011;6131;56.420;15.548;2024-01-30T12:19:21;22.53;;;10.33;;
12135;SDS011;6131;56.420;15.548;2024-01-30T12:21:53;24.43;;;11.27;;
12135;SDS011;6131;56.420;15.548;2024-01-30T12:24:19;23.70;;;10.30;;
12135;SDS011;6131;56.420;15.548;2024-01-30T12:26:45;20.97;;;10.03;;
12135;SDS011;6131;56.420;15.548;2024-01-30T12:29:11;19.60;;;9.93;;
12135;SDS011;6131;56.420;15.548;2024-01-30T12:31:37;19.97;;;10.63;;
12135;SDS011;6131;56.420;15.548;2024-01-30T12:34:03;24.00;;;10.53;;
12135;SDS011;6131;56.420;15.548;2024-01-30T12:36:29;22.17;;;10.30;;
12135;SDS011;6131;56.420;15.548;2024-01-30T12:38:56;18.60;;;9.13;;
12135;SDS011;6131;56.420;15.548;2024-01-30T12:41:23;22.73;;;10.33;;
12135;SDS011;6131;56.420;15.548;2024-01-30T12:43:53;19.10;;;10.17;;
12135;SDS011;6131;56.420;15.548;2024-01-30T12:46:19;21.63;;;10.07;;
12135;SDS011;6131;56.420;15.548;2024-01-30T12:48:45;20.40;;;10.33;;
12135;SDS011;6131;56.420;15.548;2024-01-30T12:51:11;23.77;;;10.60;;
12135;SDS011;6131;56.420;15.548;2024-01-30T12:53:37;20.77;;;10.77;;
12135;SDS011;6131;56.420;15.548;2024-01-30T12:56:03;25.47;;;10.67;;
12135;SDS011;6131;56.420;15.548;2024-01-30T12:58:29;27.20;;;11.33;;
12135;SDS011;6131;56.420;15.548;2024-01-30T13:00:55;25.67;;;11.30;;
12135;SDS011;6131;56.420;15.548;2024-01-30T13:03:21;20.17;;;10.50;;
12135;SDS011;6131;56.420;15.548;2024-01-30T13:05:47;20.53;;;10.33;;
12135;SDS011;6131;56.420;15.548;2024-01-30T13:08:14;24.43;;;10.43;;
12135;SDS011;6131;56.420;15.548;2024-01-30T13:10:40;18.03;;;10.17;;
12135;SDS011;6131;56.420;15.548;2024-01-30T13:13:06;15.17;;;9.27;;
12135;SDS011;6131;56.420;15.548;2024-01-30T13:15:33;18.70;;;9.53;;
12135;SDS011;6131;56.420;15.548;2024-01-30T13:17:59;19.40;;;9.60;;
12135;SDS011;6131;56.420;15.548;2024-01-30T13:20:25;21.30;;;10.40;;
12135;SDS011;6131;56.420;15.548;2024-01-30T13:22:50;18.93;;;9.40;;
12135;SDS011;6131;56.420;15.548;2024-01-30T13:25:16;20.77;;;9.43;;
12135;SDS011;6131;56.420;15.548;2024-01-30T13:27:43;20.63;;;9.43;;
12135;SDS011;6131;56.420;15.548;2024-01-30T13:30:09;21.50;;;9.83;;
12135;SDS011;6131;56.420;15.548;2024-01-30T13:32:35;20.30;;;10.10;;
12135;SDS011;6131;56.420;15.548;2024-01-30T13:35:01;17.70;;;9.93;;
12135;SDS011;6131;56.420;15.548;2024-01-30T13:37:27;21.30;;;10.40;;
12135;SDS011;6131;56.420;15.548;2024-01-30T13:39:53;24.13;;;11.20;;
12135;SDS011;6131;56.420;15.548;2024-01-30T13:42:19;20.97;;;11.77;;
12135;SDS011;6131;56.420;15.548;2024-01-30T13:44:45;24.93;;;13.07;;
12135;SDS011;6131;56.420;15.548;2024-01-30T13:47:11;23.97;;;12.47;;
12135;SDS011;6131;56.420;15.548;2024-01-30T13:49:37;25.93;;;13.53;;
12135;SDS011;6131;56.420;15.548;2024-01-30T13:52:03;30.90;;;14.07;;
12135;SDS011;6131;56.420;15.548;2024-01-30T13:54:29;30.83;;;14.67;;
12135;SDS011;6131;56.420;15.548;2024-01-30T13:56:56;31.43;;;14.43;;
12135;SDS011;6131;56.420;15.548;2024-01-30T13:59:22;31.73;;;14.17;;
12135;SDS011;6131;56.420;15.548;2024-01-30T14:01:50;36.60;;;16.03;;
12135;SDS011;6131;56.420;15.548;2024-01-30T14:04:16;34.43;;;15.90;;
12135;SDS011;6131;56.420;15.548;2024-01-30T14:06:42;33.67;;;15.87;;
12135;SDS011;6131;56.420;15.548;2024-01-30T14:09:08;32.90;;;15.43;;
12135;SDS011;6131;56.420;15.548;2024-01-30T14:11:37;35.50;;;16.33;;
12135;SDS011;6131;56.420;15.548;2024-01-30T14:14:03;35.90;;;16.57;;
12135;SDS011;6131;56.420;15.548;2024-01-30T14:16:29;35.90;;;16.33;;
12135;SDS011;6131;56.420;15.548;2024-01-30T14:18:55;37.40;;;16.87;;
12135;SDS011;6131;56.420;15.548;2024-01-30T14:21:20;41.07;;;17.63;;
12135;SDS011;6131;56.420;15.548;2024-01-30T14:23:46;44.00;;;19.17;;
12135;SDS011;6131;56.420;15.548;2024-01-30T14:26:12;43.17;;;19.67;;
12135;SDS011;6131;56.420;15.548;2024-01-30T14:28:38;50.03;;;18.67;;
12135;SDS011;6131;56.420;15.548;2024-01-30T14:31:04;39.70;;;18.20;;
12135;SDS011;6131;56.420;15.548;2024-01-30T14:33:30;46.47;;;19.37;;
12135;SDS011;6131;56.420;15.548;2024-01-30T14:35:56;43.07;;;18.33;;
12135;SDS011;6131;56.420;15.548;2024-01-30T14:38:23;43.17;;;17.83;;
12135;SDS011;6131;56.420;15.548;2024-01-30T14:40:50;48.37;;;18.43;;
12135;SDS011;6131;56.420;15.548;2024-01-30T14:43:16;44.13;;;19.73;;
12135;SDS011;6131;56.420;15.548;2024-01-30T14:45:42;46.73;;;19.20;;
12135;SDS011;6131;56.420;15.548;2024-01-30T14:48:11;47.07;;;20.47;;
12135;SDS011;6131;56.420;15.548;2024-01-30T14:50:37;49.77;;;20.50;;
12135;SDS011;6131;56.420;15.548;2024-01-30T14:53:03;47.63;;;19.83;;
12135;SDS011;6131;56.420;15.548;2024-01-30T14:55:29;45.40;;;18.80;;
12135;SDS011;6131;56.420;15.548;2024-01-30T14:57:55;47.13;;;19.47;;
12135;SDS011;6131;56.420;15.548;2024-01-30T15:00:21;46.10;;;18.37;;
12135;SDS011;6131;56.420;15.548;2024-01-30T15:02:47;43.70;;;19.10;;
12135;SDS011;6131;56.420;15.548;2024-01-30T15:05:13;50.97;;;19.00;;
12135;SDS011;6131;56.420;15.548;2024-01-30T15:07:39;44.57;;;17.50;;
12135;SDS011;6131;56.420;15.548;2024-01-30T15:10:05;44.40;;;17.10;;
12135;SDS011;6131;56.420;15.548;2024-01-30T15:12:32;43.10;;;18.30;;
12135;SDS011;6131;56.420;15.548;2024-01-30T15:14:58;50.97;;;18.37;;
12135;SDS011;6131;56.420;15.548;2024-01-30T15:17:24;44.77;;;18.63;;
12135;SDS011;6131;56.420;15.548;2024-01-30T15:19:50;53.73;;;19.13;;
12135;SDS011;6131;56.420;15.548;2024-01-30T15:22:16;51.17;;;19.80;;
12135;SDS011;6131;56.420;15.548;2024-01-30T15:24:42;56.20;;;19.27;;
12135;SDS011;6131;56.420;15.548;2024-01-30T15:27:08;48.60;;;17.53;;
12135;SDS011;6131;56.420;15.548;2024-01-30T15:29:34;55.67;;;18.47;;
12135;SDS011;6131;56.420;15.548;2024-01-30T15:32:00;47.47;;;18.43;;
12135;SDS011;6131;56.420;15.548;2024-01-30T15:34:27;55.33;;;18.17;;
12135;SDS011;6131;56.420;15.548;2024-01-30T15:36:53;66.10;;;20.23;;
12135;SDS011;6131;56.420;15.548;2024-01-30T15:39:19;71.40;;;21.37;;
12135;SDS011;6131;56.420;15.548;2024-01-30T15:41:45;71.43;;;19.60;;
12135;SDS011;6131;56.420;15.548;2024-01-30T15:44:11;59.23;;;18.50;;
12135;SDS011;6131;56.420;15.548;2024-01-30T15:46:38;63.10;;;19.27;;
12135;SDS011;6131;56.420;15.548;2024-01-30T15:49:04;57.73;;;20.10;;
12135;SDS011;6131;56.420;15.548;2024-01-30T15:51:31;57.77;;;18.73;;
12135;SDS011;6131;56.420;15.548;2024-01-30T15:53:57;53.27;;;19.33;;
12135;SDS011;6131;56.420;15.548;2024-01-30T15:56:23;54.63;;;19.60;;
12135;SDS011;6131;56.420;15.548;2024-01-30T15:58:50;65.63;;;20.70;;
12135;SDS011;6131;56.420;15.548;2024-01-30T16:01:17;64.43;;;19.50;;
12135;SDS011;6131;56.420;15.548;2024-01-30T16:03:43;74.83;;;21.70;;
12135;SDS011;6131;56.420;15.548;2024-01-30T16:06:12;78.43;;;22.37;;
12135;SDS011;6131;56.420;15.548;2024-01-30T16:08:38;63.47;;;20.03;;
12135;SDS011;6131;56.420;15.548;2024-01-30T16:11:04;75.97;;;22.53;;
12135;SDS011;6131;56.420;15.548;2024-01-30T16:13:30;68.50;;;20.80;;
12135;SDS011;6131;56.420;15.548;2024-01-30T16:15:56;67.57;;;21.23;;
12135;SDS011;6131;56.420;15.548;2024-01-30T16:18:22;82.23;;;25.57;;
12135;SDS011;6131;56.420;15.548;2024-01-30T16:20:50;69.07;;;21.87;;
12135;SDS011;6131;56.420;15.548;2024-01-30T16:23:16;72.13;;;22.50;;
12135;SDS011;6131;56.420;15.548;2024-01-30T16:25:43;66.30;;;22.70;;
12135;SDS011;6131;56.420;15.548;2024-01-30T16:28:09;75.87;;;20.40;;
12135;SDS011;6131;56.420;15.548;2024-01-30T16:30:35;66.00;;;19.47;;
12135;SDS011;6131;56.420;15.548;2024-01-30T16:33:01;78.40;;;20.40;;
12135;SDS011;6131;56.420;15.548;2024-01-30T16:35:27;81.63;;;22.23;;
12135;SDS011;6131;56.420;15.548;2024-01-30T16:37:54;78.23;;;22.10;;
12135;SDS011;6131;56.420;15.548;2024-01-30T16:40:20;82.93;;;22.10;;
12135;SDS011;6131;56.420;15.548;2024-01-30T16:42:46;101.20;;;23.27;;
12135;SDS011;6131;56.420;15.548;2024-01-30T16:45:12;82.30;;;23.10;;
12135;SDS011;6131;56.420;15.548;2024-01-30T16:47:38;77.47;;;23.60;;
12135;SDS011;6131;56.420;15.548;2024-01-30T16:50:04;58.40;;;22.03;;
12135;SDS011;6131;56.420;15.548;2024-01-30T16:52:30;66.50;;;20.67;;
12135;SDS011;6131;56.420;15.548;2024-01-30T16:54:56;71.47;;;21.80;;
12135;SDS011;6131;56.420;15.548;2024-01-30T16:57:22;59.57;;;21.20;;
12135;SDS011;6131;56.420;15.548;2024-01-30T16:59:48;52.20;;;19.73;;
12135;SDS011;6131;56.420;15.548;2024-01-30T17:02:14;54.47;;;19.70;;
12135;SDS011;6131;56.420;15.548;2024-01-30T17:04:40;46.97;;;19.43;;
12135;SDS011;6131;56.420;15.548;2024-01-30T17:07:06;45.50;;;19.20;;
12135;SDS011;6131;56.420;15.548;2024-01-30T17:09:32;40.70;;;17.87;;
12135;SDS011;6131;56.420;15.548;2024-01-30T17:11:58;41.83;;;17.10;;
12135;SDS011;6131;56.420;15.548;2024-01-30T17:14:26;41.10;;;17.83;;
12135;SDS011;6131;56.420;15.548;2024-01-30T17:16:53;38.00;;;17.80;;
12135;SDS011;6131;56.420;15.548;2024-01-30T17:19:20;34.17;;;16.23;;
12135;SDS011;6131;56.420;15.548;2024-01-30T17:21:46;30.20;;;15.77;;
12135;SDS011;6131;56.420;15.548;2024-01-30T17:24:12;32.57;;;16.23;;
12135;SDS011;6131;56.420;15.548;2024-01-30T17:26:40;29.83;;;15.67;;
12135;SDS011;6131;56.420;15.548;2024-01-30T17:29:06;31.43;;;15.80;;
12135;SDS011;6131;56.420;15.548;2024-01-30T17:31:32;29.73;;;15.93;;